Time;durP1;ratioP1;P1;durP2;ratioP2;P2;SDS_P1;SDS_P2;PMS_P1;PMS_P2;Temp;Humidity;BMP_temperature;BMP_pressure;BME280_temperature;BME280_humidity;BME280_pressure;Samples;Min_cycle;Max_cycle;Signal;HPM_P1;HPM_P2
2022/06/23 00:01:13;;;;;;;6.67;4.40;;;;;;;18.13;nan;99115.16;4905766;29;20507;-71
2022/06/23 00:03:39;;;;;;;8.10;5.70;;;;;;;18.14;nan;99114.97;4905932;29;20525;-70
2022/06/23 00:06:08;;;;;;;12.47;5.80;;;;;;;18.09;nan;99109.31;4905697;29;20235;-70
2022/06/23 00:08:46;;;;;;;7.93;5.73;;;;;;;18.11;nan;99114.47;4907154;29;20510;-71
2022/06/23 00:11:29;;;;;;;6.13;5.53;;;;;;;18.11;nan;99112.63;4907989;29;20461;-72
2022/06/23 00:14:14;;;;;;;6.10;4.80;;;;;;;18.12;nan;99106.34;4907896;29;20478;-71
2022/06/23 00:16:39;;;;;;;9.00;4.90;;;;;;;18.11;nan;99102.00;4907576;29;20509;-70
2022/06/23 00:19:07;;;;;;;8.27;4.40;;;;;;;18.05;nan;99104.47;4908242;29;20447;-72
2022/06/23 00:21:34;;;;;;;5.90;4.37;;;;;;;18.02;nan;99096.81;4909242;29;20275;-69
2022/06/23 00:24:03;;;;;;;8.00;5.03;;;;;;;18.04;nan;99089.53;4907580;29;20537;-71
2022/06/23 00:26:33;;;;;;;5.20;4.47;;;;;;;18.05;nan;99089.34;4906901;29;20965;-70
2022/06/23 00:29:10;;;;;;;8.90;3.80;;;;;;;18.05;nan;99099.97;4905211;29;20466;-71
2022/06/23 00:31:39;;;;;;;7.87;3.87;;;;;;;18.05;nan;99097.31;4908983;29;20454;-70
2022/06/23 00:34:14;;;;;;;8.00;3.70;;;;;;;17.98;nan;99095.44;4909242;29;20687;-70
2022/06/23 00:36:46;;;;;;;4.80;3.30;;;;;;;17.88;nan;99096.41;4900912;29;20967;-70
2022/06/23 00:39:22;;;;;;;4.27;2.97;;;;;;;17.74;nan;99099.63;4908124;29;20471;-71
2022/06/23 00:41:49;;;;;;;5.40;2.70;;;;;;;17.63;nan;99102.50;4906551;29;20457;-72
2022/06/23 00:44:22;;;;;;;2.57;2.37;;;;;;;17.55;nan;99094.47;4908136;29;20486;-70
2022/06/23 00:46:52;;;;;;;3.00;2.10;;;;;;;17.50;nan;99100.28;4900734;29;20459;-71
2022/06/23 00:49:35;;;;;;;3.70;2.43;;;;;;;17.51;nan;99095.78;4905759;29;20454;-72
2022/06/23 00:52:18;;;;;;;2.60;2.40;;;;;;;17.57;nan;99108.44;4902801;29;20462;-72
2022/06/23 00:54:48;;;;;;;3.63;1.90;;;;;;;17.63;nan;99108.66;4908479;29;20558;-72
2022/06/23 00:57:33;;;;;;;10.67;2.90;;;;;;;17.69;nan;99112.53;4914589;29;20507;-71
2022/06/23 01:00:08;;;;;;;4.13;3.27;;;;;;;17.68;nan;99105.53;4905041;29;20462;-70
2022/06/23 01:02:43;;;;;;;7.27;3.77;;;;;;;17.68;nan;99113.50;4906666;29;20452;-72
2022/06/23 01:05:24;;;;;;;8.57;4.43;;;;;;;17.66;nan;99121.63;4904998;29;20478;-70
2022/06/23 01:08:10;;;;;;;4.10;3.40;;;;;;;17.65;nan;99116.47;4903470;29;20486;-70
2022/06/23 01:10:53;;;;;;;8.50;4.40;;;;;;;17.66;nan;99121.63;4904361;29;20541;-71
2022/06/23 01:13:43;;;;;;;7.83;3.77;;;;;;;17.69;nan;99113.34;4904869;29;20474;-71
2022/06/23 01:16:15;;;;;;;7.47;3.67;;;;;;;17.74;nan;99120.88;4902017;29;20522;-71
2022/06/23 01:18:55;;;;;;;6.17;4.17;;;;;;;17.76;nan;99121.53;4904036;29;21108;-72
2022/06/23 01:21:27;;;;;;;5.87;3.00;;;;;;;17.69;nan;99125.81;4904462;29;20454;-72
2022/06/23 01:23:58;;;;;;;4.40;3.87;;;;;;;17.61;nan;99133.72;4903937;29;20479;-71
2022/06/23 01:26:43;;;;;;;6.20;3.93;;;;;;;17.55;nan;99147.59;4900045;29;21022;-71
2022/06/23 01:29:26;;;;;;;4.53;4.03;;;;;;;17.50;nan;99149.88;4886520;29;20599;-71
2022/06/23 01:31:58;;;;;;;5.80;3.88;;;;;;;17.46;nan;99144.03;4903658;29;20429;-71
2022/06/23 01:34:36;;;;;;;6.30;4.07;;;;;;;17.41;nan;99135.69;4904059;29;20226;-70
2022/06/23 01:37:12;;;;;;;7.23;4.83;;;;;;;17.35;nan;99134.47;4903697;29;20532;-70
2022/06/23 01:39:56;;;;;;;8.40;5.83;;;;;;;17.36;nan;99120.25;4904945;29;20462;-70
2022/06/23 01:42:30;;;;;;;5.80;4.47;;;;;;;17.36;nan;99133.53;4904368;29;20590;-71
2022/06/23 01:45:26;;;;;;;7.97;5.23;;;;;;;17.34;nan;99124.03;4903671;29;20493;-70
2022/06/23 01:47:54;;;;;;;8.17;5.37;;;;;;;17.33;nan;99128.50;4903215;29;20443;-70
2022/06/23 01:50:36;;;;;;;9.10;6.47;;;;;;;17.34;nan;99124.03;4909950;29;20496;-72
2022/06/23 01:53:13;;;;;;;9.53;5.70;;;;;;;17.28;nan;99128.09;4966285;23;20493;-75
2022/06/23 01:55:58;;;;;;;11.50;5.80;;;;;;;17.30;nan;99128.78;4897164;29;20467;-76
2022/06/23 01:58:29;;;;;;;7.17;5.07;;;;;;;17.31;nan;99127.81;4882989;29;20460;-75
2022/06/23 02:01:00;;;;;;;9.87;5.50;;;;;;;17.34;nan;99119.56;4886210;29;20464;-76
2022/06/23 02:03:36;;;;;;;16.73;7.63;;;;;;;17.38;nan;99120.91;4895785;29;20567;-76
2022/06/23 02:06:39;;;;;;;9.83;5.30;;;;;;;17.37;nan;99115.75;4884939;29;20522;-76
2022/06/23 02:09:21;;;;;;;9.27;5.70;;;;;;;17.30;nan;99130.63;4819384;29;20930;-75
2022/06/23 02:11:49;;;;;;;8.10;5.10;;;;;;;17.22;nan;99124.25;4906664;29;20463;-76
2022/06/23 02:14:39;;;;;;;7.80;5.50;;;;;;;17.22;nan;99118.94;4922695;29;20684;-76
2022/06/23 02:17:31;;;;;;;7.23;4.90;;;;;;;17.22;nan;99116.28;4898409;29;20560;-76
2022/06/23 02:20:04;;;;;;;9.67;5.57;;;;;;;17.25;nan;99112.50;4905361;29;20940;-75
2022/06/23 02:22:34;;;;;;;7.60;5.53;;;;;;;17.27;nan;99110.53;4903758;29;20924;-76
2022/06/23 02:25:16;;;;;;;7.50;5.17;;;;;;;17.29;nan;99121.00;4922591;29;20482;-76
2022/06/23 02:28:15;;;;;;;5.30;4.80;;;;;;;17.31;nan;99117.22;4525235;29;5002068;-76
2022/06/23 02:31:21;;;;;;;6.93;4.43;;;;;;;17.32;nan;99116.22;4912648;29;20199;-75
2022/06/23 02:34:03;;;;;;;5.47;3.83;;;;;;;17.32;nan;99113.56;4880621;29;20517;-75
2022/06/23 02:36:52;;;;;;;7.90;4.87;;;;;;;17.37;nan;99123.72;4917816;29;20558;-75
2022/06/23 02:39:45;;;;;;;7.93;4.67;;;;;;;17.36;nan;99120.25;4904162;29;21056;-76
2022/06/23 02:42:35;;;;;;;8.17;3.77;;;;;;;17.28;nan;99125.44;4905778;29;20999;-76
2022/06/23 02:45:14;;;;;;;5.30;3.40;;;;;;;17.17;nan;99123.03;4909855;29;20585;-76
2022/06/23 02:48:01;;;;;;;3.97;3.27;;;;;;;17.08;nan;99129.25;4907452;29;20566;-76
2022/06/23 02:50:47;;;;;;;2.33;2.13;;;;;;;16.97;nan;99127.66;4902730;29;20477;-76
2022/06/23 02:53:27;;;;;;;2.53;2.33;;;;;;;16.82;nan;99119.38;4902063;29;20474;-76
2022/06/23 02:56:13;;;;;;;5.37;2.67;;;;;;;16.70;nan;99123.19;4917574;29;20701;-75
2022/06/23 02:58:49;;;;;;;2.97;2.30;;;;;;;16.59;nan;99121.56;4922772;29;20448;-76
2022/06/23 03:01:23;;;;;;;2.70;2.07;;;;;;;16.49;nan;99128.75;4898050;29;20499;-76
2022/06/23 03:04:01;;;;;;;2.60;1.90;;;;;;;16.37;nan;99130.75;4902596;29;20487;-76
2022/06/23 03:06:39;;;;;;;2.77;2.57;;;;;;;16.28;nan;99131.63;4918549;29;20530;-75
2022/06/23 03:09:10;;;;;;;3.00;2.70;;;;;;;16.22;nan;99142.81;4914647;29;20449;-76
2022/06/23 03:11:53;;;;;;;2.40;2.20;;;;;;;16.14;nan;99139.06;4910943;29;20733;-76
2022/06/23 03:14:28;;;;;;;1.97;1.87;;;;;;;16.07;nan;99132.69;4903871;29;20478;-74
2022/06/23 03:16:59;;;;;;;2.00;1.90;;;;;;;16.08;nan;99138.81;4907624;29;20443;-77
2022/06/23 03:19:34;;;;;;;2.93;2.63;;;;;;;16.12;nan;99138.38;4918109;29;20468;-76
2022/06/23 03:22:05;;;;;;;5.47;4.10;;;;;;;16.16;nan;99146.88;4909554;29;20540;-76
2022/06/23 03:24:55;;;;;;;8.47;3.77;;;;;;;16.13;nan;99153.28;4902131;29;21005;-76
2022/06/23 03:27:28;;;;;;;4.10;3.53;;;;;;;16.13;nan;99145.34;4904038;29;20689;-76
2022/06/23 03:30:40;;;;;;;6.10;4.53;;;;;;;16.14;nan;99148.81;4903451;29;20454;-76
2022/06/23 03:33:16;;;;;;;6.37;4.30;;;;;;;16.18;nan;99146.75;4903314;29;20470;-76
2022/06/23 03:36:24;;;;;;;5.30;4.50;;;;;;;16.26;nan;99142.38;4899736;29;20493;-76
2022/06/23 03:41:58;;;;;;;5.73;4.17;;;;;;;16.30;nan;99154.34;4906551;29;20540;-76
2022/06/23 03:44:39;;;;;;;6.80;4.47;;;;;;;16.30;nan;99158.81;4907244;29;20486;-76
2022/06/23 03:47:15;;;;;;;4.93;4.20;;;;;;;16.31;nan;99155.16;4902879;29;20459;-75
2022/06/23 03:49:49;;;;;;;4.83;4.20;;;;;;;16.35;nan;99146.78;4907744;29;20485;-75
2022/06/23 03:52:40;;;;;;;5.37;4.60;;;;;;;16.40;nan;99143.72;4919296;29;20491;-76
2022/06/23 03:55:24;;;;;;;4.00;3.70;;;;;;;16.47;nan;99138.66;4907530;29;20738;-76
2022/06/23 03:57:57;;;;;;;4.30;3.90;;;;;;;16.53;nan;99130.97;4910467;29;20473;-76
2022/06/23 04:00:36;;;;;;;4.70;3.40;;;;;;;16.49;nan;99140.16;4926833;29;20535;-76
2022/06/23 04:03:47;;;;;;;2.77;2.57;;;;;;;16.47;nan;99142.16;4922615;29;20453;-76
2022/06/23 04:06:20;;;;;;;4.40;3.50;;;;;;;16.54;nan;99153.00;4915042;29;20591;-76
2022/06/23 04:09:08;;;;;;;3.70;2.90;;;;;;;16.62;nan;99144.31;4919919;29;20476;-76
2022/06/23 04:11:57;;;;;;;4.23;3.33;;;;;;;16.71;nan;99159.31;4911297;29;20540;-76
2022/06/23 04:14:53;;;;;;;4.67;3.00;;;;;;;16.76;nan;99159.72;4911273;29;20478;-76
2022/06/23 04:17:32;;;;;;;7.00;4.30;;;;;;;16.83;nan;99162.66;4917065;29;20924;-76
2022/06/23 04:20:08;;;;;;;3.33;3.00;;;;;;;16.87;nan;99153.41;4909896;29;20440;-76
2022/06/23 04:22:56;;;;;;;5.40;4.40;;;;;;;16.89;nan;99144.31;4921937;29;20731;-76
2022/06/23 04:25:31;;;;;;;5.20;4.70;;;;;;;16.91;nan;99147.66;4926067;29;20462;-76
2022/06/23 04:28:00;;;;;;;6.87;4.80;;;;;;;16.98;nan;99153.19;4926154;29;20453;-76
2022/06/23 04:30:25;;;;;;;7.47;5.03;;;;;;;17.05;nan;99148.13;4909687;29;20443;-76
2022/06/23 04:32:52;;;;;;;7.50;4.90;;;;;;;17.10;nan;99143.22;4907570;29;20458;-77
2022/06/23 04:35:26;;;;;;;5.13;4.47;;;;;;;17.14;nan;99133.94;4909158;29;20180;-77
2022/06/23 04:38:06;;;;;;;4.80;4.00;;;;;;;17.13;nan;99130.47;4910681;29;20455;-77
2022/06/23 04:40:46;;;;;;;5.70;4.23;;;;;;;17.16;nan;99139.94;4911096;29;20462;-76
2022/06/23 04:43:19;;;;;;;5.77;5.20;;;;;;;17.17;nan;99128.34;4922565;29;20445;-77
2022/06/23 04:46:06;;;;;;;7.70;4.20;;;;;;;17.19;nan;99127.19;4918522;29;20688;-76
2022/06/23 04:48:55;;;;;;;5.07;4.67;;;;;;;17.46;nan;99130.75;4919356;29;20539;-76
2022/06/23 04:51:44;;;;;;;6.33;4.03;;;;;;;17.93;nan;99125.19;4911263;29;20509;-76
2022/06/23 04:54:16;;;;;;;7.20;4.13;;;;;;;18.45;nan;99130.44;4911253;29;20491;-76
2022/06/23 04:56:50;;;;;;;6.70;4.17;;;;;;;18.94;nan;99133.28;4919006;29;20400;-77
2022/06/23 04:59:42;;;;;;;4.43;3.00;;;;;;;19.50;nan;99133.50;4919177;29;20551;-77
2022/06/23 05:02:35;;;;;;;5.37;4.37;;;;;;;20.09;nan;99127.97;4915019;29;21152;-76
2022/06/23 05:05:17;;;;;;;5.83;4.37;;;;;;;20.62;nan;99133.66;4930394;29;20473;-77
2022/06/23 05:07:42;;;;;;;5.07;4.13;;;;;;;21.04;nan;99132.44;4926184;29;20551;-76
2022/06/23 05:10:25;;;;;;;5.73;4.40;;;;;;;21.41;nan;99137.03;4928376;29;20537;-76
2022/06/23 05:12:56;;;;;;;4.83;3.37;;;;;;;21.74;nan;99132.25;4910039;29;20209;-76
2022/06/23 05:15:27;;;;;;;3.37;3.07;;;;;;;22.00;nan;99136.34;4910601;29;20650;-76
2022/06/23 05:17:58;;;;;;;7.27;3.80;;;;;;;22.02;nan;99137.81;4913844;29;20466;-76
2022/06/23 05:20:40;;;;;;;4.73;3.97;;;;;;;22.05;nan;99131.28;4910236;29;20435;-78
2022/06/23 05:23:14;;;;;;;6.10;4.40;;;;;;;22.07;nan;99142.63;4911944;29;20474;-75
2022/06/23 05:25:44;;;;;;;6.70;4.90;;;;;;;22.22;nan;99140.00;4916809;29;20496;-76
2022/06/23 05:28:18;;;;;;;4.77;3.97;;;;;;;22.54;nan;99138.78;4922882;29;20814;-76
2022/06/23 05:30:54;;;;;;;5.63;3.67;;;;;;;22.89;nan;99130.97;4914194;29;20947;-76
2022/06/23 05:33:25;;;;;;;5.67;3.03;;;;;;;23.28;nan;99133.28;4923160;29;20507;-76
2022/06/23 05:35:56;;;;;;;5.47;3.70;;;;;;;23.42;nan;99142.28;4920716;29;20444;-79
2022/06/23 05:38:40;;;;;;;4.37;3.47;;;;;;;23.37;nan;99136.66;4923973;29;20466;-76
2022/06/23 05:41:24;;;;;;;8.40;3.70;;;;;;;23.48;nan;99141.50;4915181;29;20551;-76
2022/06/23 05:43:51;;;;;;;6.53;3.10;;;;;;;23.64;nan;99132.38;4914751;29;20564;-79
2022/06/23 05:46:20;;;;;;;4.60;3.40;;;;;;;23.85;nan;99137.72;4915483;29;20559;-76
2022/06/23 05:48:55;;;;;;;8.10;3.70;;;;;;;24.14;nan;99143.06;4926134;29;20468;-77
2022/06/23 05:51:27;;;;;;;4.43;3.53;;;;;;;24.21;nan;99143.94;4922058;29;20462;-76
2022/06/23 05:53:59;;;;;;;5.07;3.90;;;;;;;24.33;nan;99147.75;4919001;29;20532;-75
2022/06/23 05:56:47;;;;;;;5.43;3.80;;;;;;;24.58;nan;99147.28;4933083;29;20447;-76
2022/06/23 05:59:26;;;;;;;5.03;3.67;;;;;;;24.62;nan;99143.16;4926703;29;20567;-75
2022/06/23 06:02:11;;;;;;;7.97;4.20;;;;;;;24.82;nan;99148.63;4912881;29;20451;-75
2022/06/23 06:04:45;;;;;;;7.13;4.17;;;;;;;25.17;nan;99146.69;4925268;29;20488;-77
2022/06/23 06:07:17;;;;;;;7.50;3.90;;;;;;;25.52;nan;99143.81;4917481;29;20457;-76
2022/06/23 06:09:43;;;;;;;8.43;4.30;;;;;;;25.65;nan;99140.31;4933725;29;20857;-79
2022/06/23 06:12:29;;;;;;;5.80;3.40;;;;;;;25.89;nan;99139.72;4911045;29;20911;-77
2022/06/23 06:15:00;;;;;;;6.90;5.13;;;;;;;26.19;nan;99134.75;4913583;29;20480;-76
2022/06/23 06:17:28;;;;;;;5.20;3.83;;;;;;;26.41;nan;99132.59;4913367;29;20488;-78
2022/06/23 06:19:57;;;;;;;4.07;2.77;;;;;;;26.77;nan;99135.81;4925260;29;20483;-77
2022/06/23 06:22:47;;;;;;;4.07;3.50;;;;;;;27.07;nan;99131.50;4921055;29;20454;-76
2022/06/23 06:25:22;;;;;;;10.07;3.87;;;;;;;27.09;nan;99129.41;4930529;29;20635;-77
2022/06/23 06:27:48;;;;;;;5.83;4.10;;;;;;;27.27;nan;99122.47;4923384;29;20439;-76
2022/06/23 06:30:16;;;;;;;5.60;3.50;;;;;;;27.37;nan;99128.22;4928313;29;21093;-79
2022/06/23 06:32:44;;;;;;;8.93;4.20;;;;;;;27.20;nan;99127.94;4910869;29;20410;-78
2022/06/23 06:35:26;;;;;;;9.87;4.57;;;;;;;27.18;nan;99124.63;4930417;29;20455;-77
2022/06/23 06:38:01;;;;;;;4.43;3.20;;;;;;;27.35;nan;99120.38;4914099;29;20449;-76
2022/06/23 06:40:27;;;;;;;7.47;3.73;;;;;;;27.55;nan;99120.22;4909201;29;20474;-77
2022/06/23 06:42:57;;;;;;;8.13;5.27;;;;;;;27.84;nan;99115.22;4907497;29;20813;-78
2022/06/23 06:45:27;;;;;;;4.17;3.07;;;;;;;28.07;nan;99114.56;4926957;29;21239;-76
2022/06/23 06:47:52;;;;;;;8.00;3.40;;;;;;;28.15;nan;99110.75;4912587;29;20453;-78
2022/06/23 06:50:17;;;;;;;6.17;3.77;;;;;;;28.11;nan;99104.16;4910737;29;20435;-80
2022/06/23 06:52:43;;;;;;;6.30;4.40;;;;;;;28.34;nan;99108.91;4915258;29;20254;-78
2022/06/23 06:55:17;;;;;;;6.87;4.37;;;;;;;28.67;nan;99103.94;4913823;29;20741;-77
2022/06/23 06:57:49;;;;;;;5.77;3.97;;;;;;;28.32;nan;99101.00;4922223;29;20188;-81
2022/06/23 07:00:28;;;;;;;4.57;3.17;;;;;;;27.92;nan;99100.59;4928713;29;20447;-81
2022/06/23 07:02:59;;;;;;;8.03;3.67;;;;;;;27.76;nan;99097.41;4912879;29;20447;-81
2022/06/23 07:05:37;;;;;;;7.40;3.70;;;;;;;27.88;nan;99100.22;4910121;29;20471;-77
2022/06/23 07:08:10;;;;;;;6.80;3.43;;;;;;;28.15;nan;99092.69;4910420;29;21041;-77
2022/06/23 07:10:43;;;;;;;7.80;4.23;;;;;;;28.45;nan;99092.78;4912029;29;20496;-77
2022/06/23 07:13:18;;;;;;;4.17;3.63;;;;;;;28.44;nan;99104.66;4910794;29;20457;-80
2022/06/23 07:15:50;;;;;;;4.90;3.47;;;;;;;28.54;nan;99090.59;4925182;29;20476;-77
2022/06/23 07:18:19;;;;;;;7.13;3.43;;;;;;;28.93;nan;99087.59;4908507;29;20442;-79
2022/06/23 07:21:19;;;;;;;5.20;4.07;;;;;;;29.37;nan;99088.22;4918497;29;21063;-76
2022/06/23 07:24:05;;;;;;;5.77;3.83;;;;;;;29.55;nan;99094.34;4899452;29;20467;-74
2022/06/23 07:26:42;;;;;;;8.17;3.90;;;;;;;29.67;nan;99088.16;4911825;29;20440;-77
2022/06/23 07:29:22;;;;;;;4.13;3.73;;;;;;;29.97;nan;99082.59;4923963;29;20442;-75
2022/06/23 07:32:05;;;;;;;8.87;3.77;;;;;;;30.33;nan;99086.97;4910240;29;21044;-77
2022/06/23 07:34:39;;;;;;;8.87;4.27;;;;;;;30.72;nan;99080.94;4912494;29;20535;-81
2022/06/23 07:37:15;;;;;;;6.77;3.97;;;;;;;30.98;nan;99080.38;4918351;29;20783;-77
2022/06/23 07:39:41;;;;;;;5.53;3.30;;;;;;;31.12;nan;99077.38;4910002;29;20944;-77
2022/06/23 07:42:42;;;;;;;6.07;3.40;;;;;;;31.11;nan;99079.25;4917168;29;20508;-77
2022/06/23 07:45:18;;;;;;;9.10;4.10;;;;;;;31.23;nan;99074.56;4926286;29;20235;-80
2022/06/23 07:47:43;;;;;;;10.00;3.97;;;;;;;31.21;nan;99075.88;4927200;29;20528;-79
2022/06/23 07:50:10;;;;;;;4.60;2.70;;;;;;;31.15;nan;99080.41;4926473;29;20455;-80
2022/06/23 07:52:36;;;;;;;7.70;3.50;;;;;;;31.23;nan;99062.91;4922208;29;20213;-78
2022/06/23 07:55:02;;;;;;;5.23;2.47;;;;;;;31.26;nan;99062.41;4937767;23;20882;-71
2022/06/23 07:57:31;;;;;;;7.33;3.10;;;;;;;31.31;nan;99068.72;4915720;29;20723;-71
2022/06/23 08:00:01;;;;;;;9.47;3.80;;;;;;;31.36;nan;99059.03;4918836;29;20968;-71
2022/06/23 08:02:49;;;;;;;6.53;3.07;;;;;;;31.38;nan;99057.75;4921334;29;21032;-71
2022/06/23 08:05:25;;;;;;;5.50;2.80;;;;;;;31.31;nan;99052.44;4919116;29;21063;-71
2022/06/23 08:07:51;;;;;;;7.10;3.27;;;;;;;31.37;nan;99056.09;4939328;29;20488;-70
2022/06/23 08:10:21;;;;;;;5.37;3.40;;;;;;;31.22;nan;99056.66;4942570;28;21242;-70
2022/06/23 08:13:22;;;;;;;8.80;4.03;;;;;;;31.26;nan;99059.69;4943803;29;20234;-71
2022/06/23 08:18:47;;;;;;;7.70;2.50;;;;;;;31.13;nan;99051.88;4943814;29;20468;-70
2022/06/23 08:21:20;;;;;;;7.73;2.93;;;;;;;30.97;nan;99048.06;4941302;29;20654;-71
2022/06/23 08:23:52;;;;;;;7.43;2.53;;;;;;;30.76;nan;99054.97;4943641;29;20854;-71
2022/06/23 08:26:19;;;;;;;9.10;4.40;;;;;;;30.77;nan;99043.91;4944015;29;20880;-70
2022/06/23 08:28:47;;;;;;;7.70;2.73;;;;;;;30.85;nan;99042.72;4945173;29;20478;-71
2022/06/23 08:31:13;;;;;;;7.80;3.47;;;;;;;30.72;nan;99037.56;4940980;29;20529;-71
2022/06/23 08:33:39;;;;;;;5.47;3.00;;;;;;;30.52;nan;99038.81;4943853;29;20448;-70
2022/06/23 08:36:11;;;;;;;8.27;2.80;;;;;;;30.68;nan;99030.97;4937787;29;20794;-70
2022/06/23 08:38:50;;;;;;;6.00;3.07;;;;;;;30.68;nan;99025.53;4932898;29;20217;-71
2022/06/23 08:41:26;;;;;;;7.43;3.10;;;;;;;30.53;nan;99023.38;4941609;29;20926;-71
2022/06/23 08:44:22;;;;;;;8.23;3.17;;;;;;;30.44;nan;99017.53;4943428;29;20481;-71
2022/06/23 08:46:58;;;;;;;6.87;3.43;;;;;;;30.53;nan;99017.97;4943169;29;20534;-71
2022/06/23 08:49:41;;;;;;;8.90;3.50;;;;;;;30.59;nan;99017.81;4941574;29;20822;-71
2022/06/23 08:52:27;;;;;;;8.90;3.30;;;;;;;30.54;nan;99015.03;4941486;29;20489;-70
2022/06/23 08:55:06;;;;;;;6.87;3.40;;;;;;;30.62;nan;99011.06;4946641;28;20487;-71
2022/06/23 08:57:41;;;;;;;8.83;3.10;;;;;;;30.78;nan;99009.47;4962063;28;20463;-71
2022/06/23 09:00:17;;;;;;;5.20;2.47;;;;;;;30.87;nan;99005.34;4960360;28;20802;-69
2022/06/23 09:02:54;;;;;;;9.20;3.93;;;;;;;31.07;nan;99013.81;4960751;28;20468;-70
2022/06/23 09:05:37;;;;;;;5.70;3.20;;;;;;;31.23;nan;99008.63;4962675;28;20516;-70
2022/06/23 09:08:40;;;;;;;8.00;3.83;;;;;;;31.44;nan;99005.19;4942702;28;20572;-71
2022/06/23 09:11:24;;;;;;;12.87;2.90;;;;;;;31.44;nan;99001.66;4957762;28;20539;-70
2022/06/23 09:14:04;;;;;;;6.70;3.17;;;;;;;31.45;nan;99004.13;4957473;28;20485;-70
2022/06/23 09:16:49;;;;;;;6.63;2.80;;;;;;;31.27;nan;99007.91;4960765;28;20468;-71
2022/06/23 09:19:32;;;;;;;12.40;3.70;;;;;;;31.24;nan;99007.56;4957105;28;20465;-71
2022/06/23 09:22:19;;;;;;;7.90;2.70;;;;;;;31.34;nan;98996.88;4958341;28;20477;-70
2022/06/23 09:24:55;;;;;;;5.93;2.20;;;;;;;31.29;nan;98996.78;4961716;28;20535;-71
2022/06/23 09:27:32;;;;;;;12.03;2.80;;;;;;;31.34;nan;98990.63;4962098;28;20471;-70
2022/06/23 09:30:04;;;;;;;8.07;3.70;;;;;;;31.41;nan;98992.13;4960266;28;20501;-70
2022/06/23 09:32:48;;;;;;;10.50;3.23;;;;;;;31.59;nan;98996.44;4960083;28;20922;-71
2022/06/23 09:35:51;;;;;;;15.73;5.00;;;;;;;31.45;nan;98993.25;4961360;28;20483;-71
2022/06/23 09:38:33;;;;;;;12.40;3.83;;;;;;;31.54;nan;98990.94;4957164;28;20464;-70
2022/06/23 09:41:29;;;;;;;9.20;3.47;;;;;;;31.55;nan;98981.75;4960467;28;20559;-71
2022/06/23 09:44:03;;;;;;;6.70;2.80;;;;;;;31.33;nan;98987.09;4960696;28;20461;-70
2022/06/23 09:46:47;;;;;;;9.33;4.30;;;;;;;31.02;nan;98985.78;4960626;28;21021;-70
2022/06/23 09:49:34;;;;;;;7.77;4.10;;;;;;;30.97;nan;98978.38;4962031;28;20445;-72
2022/06/23 09:52:37;;;;;;;8.70;2.80;;;;;;;31.23;nan;98981.50;4958756;28;20452;-71
2022/06/23 09:55:33;;;;;;;9.40;2.87;;;;;;;31.25;nan;98982.09;4960189;28;20488;-70
2022/06/23 09:58:21;;;;;;;5.20;2.73;;;;;;;31.34;nan;98980.59;4958883;28;20464;-70
2022/06/23 10:01:00;;;;;;;8.50;3.40;;;;;;;31.48;nan;98979.19;4959727;28;20544;-70
2022/06/23 10:03:59;;;;;;;6.77;2.97;;;;;;;31.71;nan;98967.28;4961483;28;20453;-70
2022/06/23 10:06:35;;;;;;;6.97;3.83;;;;;;;31.81;nan;98958.47;4954041;28;20508;-71
2022/06/23 10:09:09;;;;;;;7.10;3.23;;;;;;;32.02;nan;98965.00;4962404;28;20996;-71
2022/06/23 10:11:53;;;;;;;8.57;3.60;;;;;;;32.24;nan;98964.97;4959161;28;20464;-71
2022/06/23 10:14:32;;;;;;;12.33;2.73;;;;;;;32.35;nan;98966.75;4959122;28;20469;-70
2022/06/23 10:17:00;;;;;;;;;;;;;;;32.43;nan;98954.56;4959795;28;20908;-71
2022/06/23 10:19:44;;;;;;;;;;;;;;;32.42;nan;98963.00;4946469;28;20013;-71
2022/06/23 10:22:28;;;;;;;;;;;;;;;32.59;nan;98950.97;4960353;28;20497;-71
2022/06/23 10:24:59;;;;;;;;;;;;;;;32.57;nan;98953.13;4961183;28;20035;-71
2022/06/23 10:27:24;;;;;;;;;;;;;;;32.67;nan;98954.28;4956418;28;19968;-71
2022/06/23 10:30:08;;;;;;;;;;;;;;;32.63;nan;98948.56;4960085;28;20008;-71
2022/06/23 10:32:52;;;;;;;;;;;;;;;32.69;nan;98949.41;4951695;28;19999;-71
2022/06/23 10:35:26;;;;;;;;;;;;;;;32.63;nan;98940.38;4958838;28;20285;-70
2022/06/23 10:38:22;;;;;;;8.20;3.44;;;;;;;32.32;nan;98948.19;4946170;28;20343;-71
2022/06/23 10:40:50;;;;;;;7.33;3.27;;;;;;;32.06;nan;98949.03;4961648;28;20222;-71
2022/06/23 10:43:53;;;;;;;8.83;3.43;;;;;;;31.99;nan;98935.63;4957654;28;20552;-71
2022/06/23 10:46:36;;;;;;;10.10;3.30;;;;;;;32.08;nan;98936.81;4959563;28;20480;-71
2022/06/23 10:49:22;;;;;;;6.73;3.00;;;;;;;31.87;nan;98933.00;4960241;28;20960;-71
2022/06/23 10:52:22;;;;;;;6.93;3.47;;;;;;;32.01;nan;98929.94;4944603;28;20485;-71
2022/06/23 10:54:53;;;;;;;10.70;5.07;;;;;;;32.06;nan;98930.81;4914621;28;20489;-70
2022/06/23 10:57:37;;;;;;;6.53;3.27;;;;;;;32.08;nan;98930.53;4960833;28;20561;-71
2022/06/23 11:00:06;;;;;;;6.27;4.33;;;;;;;32.10;nan;98926.50;4942307;28;20464;-71
2022/06/23 11:02:41;;;;;;;10.23;4.03;;;;;;;32.05;nan;98928.34;4941568;28;20446;-71
2022/06/23 11:05:26;;;;;;;7.80;4.67;;;;;;;31.94;nan;98920.06;4947093;28;20503;-70
2022/06/23 11:08:17;;;;;;;7.13;3.80;;;;;;;31.96;nan;98914.41;4956416;28;20469;-71
2022/06/23 11:10:54;;;;;;;4.13;3.10;;;;;;;32.03;nan;98915.03;4960131;28;20464;-71
2022/06/23 11:13:45;;;;;;;6.63;3.50;;;;;;;31.95;nan;98916.28;4960087;28;20954;-71
2022/06/23 11:16:49;;;;;;;6.43;3.40;;;;;;;31.87;nan;98918.63;4951409;28;20480;-71
2022/06/23 11:19:31;;;;;;;12.03;3.50;;;;;;;32.06;nan;98919.94;4916261;28;20466;-71
2022/06/23 11:22:09;;;;;;;10.40;3.90;;;;;;;32.20;nan;98920.38;4942185;29;20434;-71
2022/06/23 11:24:42;;;;;;;10.10;3.80;;;;;;;32.13;nan;98903.44;4941368;28;20473;-70
2022/06/23 11:27:34;;;;;;;7.13;3.77;;;;;;;31.99;nan;98902.19;4959399;28;20488;-71
2022/06/23 11:30:06;;;;;;;11.40;3.47;;;;;;;31.99;nan;98894.06;4960926;28;20441;-70
2022/06/23 11:32:34;;;;;;;10.43;4.17;;;;;;;31.95;nan;98883.69;4961295;28;20683;-71
2022/06/23 11:35:20;;;;;;;5.50;3.10;;;;;;;31.95;nan;98889.13;4953023;28;20576;-71
2022/06/23 11:38:12;;;;;;;9.77;3.90;;;;;;;31.77;nan;98884.00;4955911;28;20997;-71
2022/06/23 11:41:03;;;;;;;6.43;2.80;;;;;;;31.77;nan;98875.03;4957609;28;20544;-70
2022/06/23 11:43:50;;;;;;;5.33;3.40;;;;;;;31.69;nan;98879.84;4958751;28;20987;-70
2022/06/23 11:46:38;;;;;;;8.57;2.80;;;;;;;31.80;nan;98872.63;4959870;28;20512;-70
2022/06/23 11:49:24;;;;;;;8.17;3.63;;;;;;;31.86;nan;98871.59;4960609;28;20449;-71
2022/06/23 11:52:10;;;;;;;9.20;3.30;;;;;;;31.86;nan;98868.06;4958000;28;21656;-71
2022/06/23 11:54:46;;;;;;;8.90;2.83;;;;;;;31.84;nan;98862.91;4957884;28;20477;-71
2022/06/23 11:57:29;;;;;;;5.37;2.77;;;;;;;31.77;nan;98856.03;4942162;28;21097;-71
2022/06/23 12:00:17;;;;;;;7.50;2.60;;;;;;;31.80;nan;98853.63;4960906;28;20561;-71
2022/06/23 12:02:56;;;;;;;6.47;3.37;;;;;;;31.74;nan;98847.31;4958553;28;20472;-70
2022/06/23 12:05:42;;;;;;;9.03;3.27;;;;;;;31.74;nan;98843.78;4959979;28;20855;-70
2022/06/23 12:08:16;;;;;;;6.07;4.60;;;;;;;31.77;nan;98847.88;4957944;28;20465;-70
2022/06/23 12:10:41;;;;;;;8.53;2.70;;;;;;;31.80;nan;98847.38;4955669;28;20967;-71
2022/06/23 12:13:07;;;;;;;10.60;4.00;;;;;;;31.93;nan;98841.56;4958675;28;20461;-71
2022/06/23 12:15:38;;;;;;;7.07;3.23;;;;;;;32.01;nan;98837.59;4957497;28;20222;-70
2022/06/23 12:18:14;;;;;;;7.00;3.80;;;;;;;31.97;nan;98834.53;4955802;28;20308;-71
2022/06/23 12:20:55;;;;;;;6.87;3.20;;;;;;;31.82;nan;98823.50;4942853;28;20854;-70
2022/06/23 12:23:52;;;;;;;5.27;2.83;;;;;;;31.77;nan;98826.16;4944506;28;20453;-71
2022/06/23 12:26:56;;;;;;;9.13;3.37;;;;;;;31.75;nan;98821.78;4957737;28;20497;-71
2022/06/23 12:29:33;;;;;;;7.07;3.57;;;;;;;31.73;nan;98815.81;4955756;28;20896;-70
2022/06/23 12:32:17;;;;;;;4.63;2.73;;;;;;;31.65;nan;98815.44;4958682;28;20479;-71
2022/06/23 12:34:54;;;;;;;8.40;2.80;;;;;;;31.75;nan;98812.81;4958400;28;20492;-70
2022/06/23 12:37:34;;;;;;;6.50;3.50;;;;;;;31.86;nan;98814.56;4958135;28;20475;-71
2022/06/23 12:40:05;;;;;;;4.30;3.10;;;;;;;31.78;nan;98806.88;4960344;28;20489;-71
2022/06/23 12:42:38;;;;;;;8.23;3.97;;;;;;;31.77;nan;98809.88;4959018;28;20536;-71
2022/06/23 12:45:31;;;;;;;9.80;3.90;;;;;;;31.75;nan;98804.69;4957600;28;20492;-70
2022/06/23 12:48:05;;;;;;;7.40;3.50;;;;;;;31.58;nan;98787.69;4957291;28;20518;-71
2022/06/23 12:50:57;;;;;;;10.20;3.73;;;;;;;31.38;nan;98775.53;4961571;28;20441;-70
2022/06/23 12:53:23;;;;;;;8.83;4.00;;;;;;;31.38;nan;98775.53;4962312;28;20484;-71